Terminal Aerodrome Forecast
Issued by NWS

Home | Current Version | Previous Version | Text Only | Print | Product List | Glossary On
Versions: 1 2 3 4 5 6 7 8 9 10 11 12 13 14 15 16 17 18 19 20
000
FTUS41 KPHI 011904 AAC
TAFMIV
TAF AMD
KMIV 011904Z 0119/0218 VRB04KT 2SM -SNPL OVC012
     FM012100 VRB03KT 4SM -FZRA BR OVC010
     FM020300 VRB03KT 1SM RA OVC006
     FM020600 23005KT 4SM BR OVC008
     FM020800 27007KT 6SM BR OVC012
     FM021000 29008KT P6SM OVC040
     FM021300 31012KT P6SM SCT040 BKN200=

USA.gov is the U.S. government's official web portal to all federal, state and local government web resources and services.